Terminal Aerodrome Forecast
Issued by NWS

Home | Current Version | Previous Version | Text Only | Print | Product List | Glossary On
Versions: 1 2 3 4 5 6 7 8 9 10 11 12 13 14 15 16 17
000
FTUS44 KLIX 251739
TAFHUM
TAF
KHUM 251739Z 2518/2618 15010KT P6SM BKN035
     FM260200 15005KT P6SM SCT030
     FM261700 15010KT P6SM BKN035=

USA.gov is the U.S. government's official web portal to all federal, state and local government web resources and services.